createdAt,value
2023-10-20T00:00:42.490Z,148.82
2023-10-20T00:03:09.985Z,85.30
2023-10-20T00:05:37.200Z,130.23
2023-10-20T00:08:04.028Z,129.63
2023-10-20T00:10:38.071Z,146.40
2023-10-20T00:13:05.998Z,127.85
2023-10-20T00:15:34.570Z,103.22
2023-10-20T00:18:02.563Z,112.30
2023-10-20T00:20:29.934Z,114.93
2023-10-20T00:22:56.930Z,105.75
2023-10-20T00:25:23.890Z,143.45
2023-10-20T00:27:50.554Z,106.70
2023-10-20T00:30:17.075Z,96.07
2023-10-20T00:32:44.267Z,175.10
2023-10-20T00:35:14.503Z,111.10
2023-10-20T00:37:42.208Z,132.13
2023-10-20T00:40:12.255Z,87.25
2023-10-20T00:42:39.406Z,111.28
2023-10-20T00:45:08.038Z,119.22
2023-10-20T00:47:37.227Z,114.10
2023-10-20T00:50:05.837Z,140.52
2023-10-20T00:52:37.119Z,121.13
2023-10-20T00:55:04.582Z,118.30
2023-10-20T00:57:31.192Z,148.88
2023-10-20T00:59:57.650Z,134.43
2023-10-20T01:02:25.640Z,65.13
2023-10-20T01:04:52.679Z,135.23
2023-10-20T01:07:19.140Z,95.90
2023-10-20T01:09:46.012Z,89.88
2023-10-20T01:12:12.529Z,85.70
2023-10-20T01:14:39.159Z,116.43
2023-10-20T01:17:05.991Z,54.05
2023-10-20T01:19:33.428Z,123.13
2023-10-20T01:22:00.990Z,87.55
2023-10-20T01:24:27.914Z,79.18
2023-10-20T01:26:54.419Z,117.22
2023-10-20T01:29:21.208Z,98.63
2023-10-20T01:31:47.828Z,126.57
2023-10-20T01:34:14.572Z,87.88
2023-10-20T01:36:41.321Z,161.07
2023-10-20T01:39:09.226Z,137.80
2023-10-20T01:41:35.807Z,112.38
2023-10-20T01:44:02.294Z,140.65
2023-10-20T01:46:29.774Z,105.63
2023-10-20T01:48:56.418Z,109.55
2023-10-20T01:51:22.870Z,85.15
2023-10-20T01:53:49.356Z,150.13
2023-10-20T01:56:15.872Z,103.00
2023-10-20T01:58:42.392Z,100.75
2023-10-20T02:01:09.690Z,99.53
2023-10-20T02:03:36.330Z,59.05
2023-10-20T02:06:03.191Z,134.35
2023-10-20T02:08:29.680Z,60.72
2023-10-20T02:10:56.143Z,62.20
2023-10-20T02:13:22.603Z,95.85
2023-10-20T02:15:51.364Z,117.80
2023-10-20T02:18:18.634Z,95.32
2023-10-20T02:20:45.350Z,151.25
2023-10-20T02:23:12.585Z,146.55
2023-10-20T02:25:39.220Z,122.95
2023-10-20T02:28:06.085Z,101.97
2023-10-20T02:30:33.725Z,76.25
2023-10-20T02:33:01.639Z,101.38
2023-10-20T02:35:28.181Z,69.70
2023-10-20T02:37:54.637Z,61.42
2023-10-20T02:40:21.251Z,118.25
2023-10-20T02:42:47.896Z,83.25
2023-10-20T02:45:14.642Z,97.60
2023-10-20T02:47:41.406Z,100.70
2023-10-20T02:50:08.639Z,91.20
2023-10-20T02:52:35.156Z,80.43
2023-10-20T02:55:01.872Z,107.22
2023-10-20T02:57:28.473Z,74.30
2023-10-20T02:59:54.972Z,86.53
2023-10-20T03:02:21.839Z,72.55
2023-10-20T03:04:48.483Z,129.95
2023-10-20T03:07:15.057Z,139.50
2023-10-20T03:09:41.510Z,60.35
2023-10-20T03:12:07.993Z,100.95
2023-10-20T03:14:35.988Z,91.15
2023-10-20T03:17:02.980Z,81.78
2023-10-20T03:19:29.769Z,86.93
2023-10-20T03:21:56.388Z,90.90
2023-10-20T03:24:22.980Z,114.43
2023-10-20T03:26:49.687Z,111.53
2023-10-20T03:29:16.344Z,92.85
2023-10-20T03:31:43.320Z,106.93
2023-10-20T03:34:09.838Z,123.47
2023-10-20T03:36:36.301Z,59.60
2023-10-20T03:39:02.830Z,83.78
2023-10-20T03:41:30.460Z,56.95
2023-10-20T03:43:57.066Z,74.72
2023-10-20T03:46:24.648Z,79.63
2023-10-20T03:48:51.158Z,88.53
2023-10-20T03:51:18.296Z,135.18
2023-10-20T03:53:48.812Z,45.00
2023-10-20T03:56:16.106Z,50.15
2023-10-20T03:58:43.745Z,106.63
2023-10-20T04:01:10.445Z,102.85
2023-10-20T04:03:37.009Z,89.05
2023-10-20T04:06:07.461Z,55.78
2023-10-20T04:08:35.224Z,94.82
2023-10-20T04:11:02.039Z,79.05
2023-10-20T04:13:33.277Z,81.75
2023-10-20T04:16:13.495Z,46.30
2023-10-20T04:18:44.379Z,48.28
2023-10-20T04:21:14.939Z,69.45
2023-10-20T04:23:42.170Z,44.20
2023-10-20T04:26:34.835Z,53.55
2023-10-20T04:29:14.622Z,109.47
2023-10-20T04:32:00.383Z,62.65
2023-10-20T04:34:46.088Z,42.03
2023-10-20T04:37:31.352Z,61.15
2023-10-20T04:40:16.436Z,58.10
2023-10-20T04:42:42.940Z,60.05
2023-10-20T04:45:22.951Z,64.68
2023-10-20T04:48:01.414Z,67.43
2023-10-20T04:50:33.931Z,56.50
2023-10-20T04:53:06.781Z,68.20
2023-10-20T04:55:54.216Z,64.35
2023-10-20T04:58:39.055Z,78.93
2023-10-20T05:01:08.765Z,40.42
2023-10-20T05:03:47.709Z,69.57
2023-10-20T05:06:23.718Z,29.63
2023-10-20T05:08:50.907Z,77.15
2023-10-20T05:11:17.920Z,96.35
2023-10-20T05:17:26.523Z,50.90
2023-10-20T05:22:21.507Z,37.72
2023-10-20T05:24:48.082Z,39.33
2023-10-20T05:27:14.590Z,37.00
2023-10-20T05:29:41.190Z,77.25
2023-10-20T05:32:07.947Z,34.17
2023-10-20T05:34:35.691Z,37.25
2023-10-20T05:37:02.676Z,43.83
2023-10-20T05:39:29.251Z,31.45
2023-10-20T05:41:55.804Z,27.60
2023-10-20T05:44:24.258Z,40.58
2023-10-20T05:46:51.793Z,35.20
2023-10-20T05:49:18.371Z,29.73
2023-10-20T05:51:46.314Z,37.58
2023-10-20T05:54:12.788Z,38.58
2023-10-20T05:56:39.322Z,49.65
2023-10-20T05:59:05.855Z,45.97
2023-10-20T06:01:32.494Z,47.72
2023-10-20T06:03:59.432Z,24.45
2023-10-20T06:06:25.973Z,22.85
2023-10-20T06:08:52.478Z,29.05
2023-10-20T06:11:19.083Z,27.52
2023-10-20T06:13:45.506Z,30.17
2023-10-20T06:16:12.688Z,13.90
2023-10-20T06:18:42.085Z,17.13
2023-10-20T06:21:18.092Z,14.00
2023-10-20T06:23:45.248Z,15.55
2023-10-20T06:26:12.034Z,12.52
2023-10-20T06:28:38.628Z,11.43
2023-10-20T06:31:28.559Z,9.00
2023-10-20T06:34:10.644Z,9.50
2023-10-20T06:36:41.332Z,8.50
2023-10-20T06:39:13.971Z,8.57
2023-10-20T06:41:41.201Z,9.43
2023-10-20T06:44:08.035Z,9.38
2023-10-20T06:46:34.547Z,9.63
2023-10-20T06:49:01.027Z,7.82
2023-10-20T06:51:27.536Z,7.47
2023-10-20T06:53:54.854Z,8.52
2023-10-20T06:56:25.894Z,6.68
2023-10-20T07:01:21.076Z,5.78
2023-10-20T07:03:47.813Z,6.43
2023-10-20T07:06:14.530Z,7.00
2023-10-20T07:08:41.258Z,7.10
2023-10-20T07:11:08.165Z,9.10
2023-10-20T07:13:35.118Z,6.03
2023-10-20T07:16:01.941Z,7.10
2023-10-20T07:18:28.707Z,5.78
2023-10-20T07:20:58.687Z,5.63
2023-10-20T07:23:25.976Z,7.78
2023-10-20T07:25:53.887Z,7.10
2023-10-20T07:28:20.401Z,6.53
2023-10-20T07:30:46.848Z,5.32
2023-10-20T07:33:13.545Z,7.70
2023-10-20T07:35:40.449Z,5.75
2023-10-20T07:38:09.202Z,5.63
2023-10-20T07:40:38.950Z,8.45
2023-10-20T07:43:07.478Z,8.30
2023-10-20T07:45:44.281Z,8.63
2023-10-20T07:48:11.964Z,7.35
2023-10-20T07:50:39.026Z,7.85
2023-10-20T07:53:06.355Z,5.68
2023-10-20T07:55:32.909Z,6.72
2023-10-20T07:58:02.299Z,6.57
2023-10-20T08:00:30.677Z,6.45
2023-10-20T08:02:57.457Z,4.15
2023-10-20T08:05:27.054Z,6.68
2023-10-20T08:07:54.389Z,4.75
2023-10-20T08:10:22.924Z,4.97
2023-10-20T08:12:50.337Z,5.35
2023-10-20T08:15:17.588Z,4.18
2023-10-20T08:17:46.264Z,3.80
2023-10-20T08:20:13.848Z,6.03
2023-10-20T08:22:40.637Z,4.53
2023-10-20T08:25:08.550Z,4.68
2023-10-20T08:27:35.300Z,4.13
2023-10-20T08:30:01.952Z,4.50
2023-10-20T08:32:28.539Z,3.13
2023-10-20T08:34:55.059Z,6.03
2023-10-20T08:37:21.565Z,3.17
2023-10-20T08:39:48.209Z,3.35
2023-10-20T08:42:19.039Z,2.42
2023-10-20T08:44:46.338Z,3.42
2023-10-20T08:47:18.589Z,3.08
2023-10-20T08:49:47.224Z,2.78
2023-10-20T08:52:14.597Z,3.05
2023-10-20T08:54:42.267Z,3.10
2023-10-20T08:57:09.477Z,2.72
2023-10-20T08:59:39.048Z,2.85
2023-10-20T09:02:06.415Z,2.67
2023-10-20T09:04:35.484Z,2.35
2023-10-20T09:07:13.000Z,2.92
2023-10-20T09:09:41.905Z,2.72
2023-10-20T09:12:09.876Z,2.67
2023-10-20T09:14:42.693Z,1.75
2023-10-20T09:17:13.134Z,2.70
2023-10-20T09:19:39.644Z,2.40
2023-10-20T09:22:06.782Z,2.03
2023-10-20T09:24:33.471Z,1.85
2023-10-20T09:27:01.068Z,2.90
2023-10-20T09:29:31.107Z,1.42
2023-10-20T09:32:00.773Z,1.30
2023-10-20T09:34:28.703Z,1.50
2023-10-20T09:36:57.762Z,1.55
2023-10-20T09:39:38.457Z,1.98
2023-10-20T09:42:07.135Z,3.08
2023-10-20T09:44:47.640Z,2.00
2023-10-20T09:47:23.152Z,1.55
2023-10-20T09:49:52.320Z,1.30
2023-10-20T09:52:20.314Z,1.92
2023-10-20T09:54:51.384Z,2.65
2023-10-20T09:57:20.795Z,1.20
2023-10-20T09:59:54.780Z,1.42
2023-10-20T10:02:29.127Z,1.13
2023-10-20T10:04:58.060Z,2.97
2023-10-20T10:07:37.234Z,0.95
2023-10-20T10:10:06.171Z,1.30
2023-10-20T10:12:34.798Z,1.00
2023-10-20T10:15:13.701Z,0.98
2023-10-20T10:17:47.990Z,1.13
2023-10-20T10:20:28.601Z,0.88
2023-10-20T10:23:02.644Z,0.70
2023-10-20T10:25:42.679Z,1.05
2023-10-20T10:28:19.511Z,0.70
2023-10-20T10:30:49.897Z,1.02
2023-10-20T10:33:22.337Z,1.30
2023-10-20T10:35:49.315Z,0.88
2023-10-20T10:38:23.386Z,0.80
2023-10-20T10:40:52.384Z,0.60
2023-10-20T10:43:20.706Z,0.98
2023-10-20T10:45:54.489Z,1.50
2023-10-20T10:48:25.617Z,0.90
2023-10-20T10:50:52.403Z,0.75
2023-10-20T10:53:19.059Z,0.98
2023-10-20T10:55:46.469Z,0.60
2023-10-20T10:58:14.234Z,1.17
2023-10-20T11:00:45.089Z,0.60
2023-10-20T11:03:12.741Z,0.75
2023-10-20T11:05:40.252Z,0.50
2023-10-20T11:08:08.754Z,0.75
2023-10-20T11:10:38.838Z,0.60
2023-10-20T11:13:07.714Z,0.60
2023-10-20T11:15:34.594Z,0.95
2023-10-20T11:18:02.764Z,0.55
2023-10-20T11:20:33.904Z,0.85
2023-10-20T11:23:05.276Z,1.77
2023-10-20T11:25:31.764Z,0.68
2023-10-20T11:27:58.773Z,1.02
2023-10-20T11:30:25.453Z,0.70
2023-10-20T11:32:56.260Z,1.58
2023-10-20T11:35:25.782Z,0.73
2023-10-20T11:37:53.547Z,0.60
2023-10-20T11:40:21.121Z,1.15
2023-10-20T11:42:50.850Z,0.63
2023-10-20T11:45:18.004Z,0.75
2023-10-20T11:47:44.852Z,0.60
2023-10-20T11:50:12.037Z,0.70
2023-10-20T11:52:42.540Z,1.83
2023-10-20T11:55:10.286Z,0.50
2023-10-20T11:57:37.711Z,0.60
2023-10-20T12:00:11.447Z,0.77
2023-10-20T12:02:42.004Z,0.70
2023-10-20T12:05:09.820Z,0.80
2023-10-20T12:07:37.387Z,1.27
2023-10-20T12:10:06.508Z,0.50
2023-10-20T12:12:33.460Z,0.93
2023-10-20T12:15:01.430Z,1.45
2023-10-20T12:17:28.454Z,0.60
2023-10-20T12:19:55.395Z,1.13
2023-10-20T12:22:21.893Z,0.65
2023-10-20T12:24:48.423Z,0.50
2023-10-20T12:27:15.097Z,1.25
2023-10-20T12:29:41.915Z,1.15
2023-10-20T12:32:13.638Z,0.75
2023-10-20T12:34:40.945Z,0.50
2023-10-20T12:37:07.496Z,0.65
2023-10-20T12:39:34.590Z,0.60
2023-10-20T12:42:04.323Z,0.63
2023-10-20T12:44:31.054Z,0.60
2023-10-20T12:46:57.692Z,0.50
2023-10-20T12:49:24.227Z,0.30
2023-10-20T12:51:50.683Z,2.00
2023-10-20T12:54:17.423Z,1.05
2023-10-20T12:56:44.028Z,0.40
2023-10-20T12:59:10.522Z,0.70
2023-10-20T13:01:37.048Z,0.60
2023-10-20T13:04:03.888Z,0.47
2023-10-20T13:06:31.853Z,0.50
2023-10-20T13:09:00.558Z,1.58
2023-10-20T13:11:27.173Z,0.73
2023-10-20T13:13:53.906Z,0.60
2023-10-20T13:16:20.379Z,0.60
2023-10-20T13:18:46.863Z,0.40
2023-10-20T13:21:13.308Z,0.60
2023-10-20T13:23:39.813Z,0.82
2023-10-20T13:26:06.291Z,0.57
2023-10-20T13:28:33.728Z,1.08
2023-10-20T13:31:12.373Z,0.50
2023-10-20T13:33:40.915Z,0.75
2023-10-20T13:36:09.159Z,0.60
2023-10-20T13:38:39.046Z,0.65
2023-10-20T13:41:06.561Z,0.98
2023-10-20T13:43:33.519Z,1.35
2023-10-20T13:46:00.533Z,0.75
2023-10-20T13:48:27.453Z,0.88
2023-10-20T13:50:54.405Z,0.77
2023-10-20T13:53:21.154Z,0.77
2023-10-20T13:55:47.836Z,1.30
2023-10-20T13:58:16.369Z,0.60
2023-10-20T14:00:42.981Z,0.95
2023-10-20T14:03:09.730Z,1.00
2023-10-20T14:05:36.688Z,0.88
2023-10-20T14:08:03.520Z,0.70
2023-10-20T14:10:30.322Z,0.70
2023-10-20T14:12:57.212Z,0.80
2023-10-20T14:15:24.490Z,1.05
2023-10-20T14:17:51.555Z,3.80
2023-10-20T14:20:18.998Z,0.70
2023-10-20T14:22:45.668Z,1.20
2023-10-20T14:25:12.508Z,0.63
2023-10-20T14:27:40.330Z,1.58
2023-10-20T14:30:08.119Z,0.50
2023-10-20T14:32:35.415Z,0.63
2023-10-20T14:35:02.260Z,0.68
2023-10-20T14:37:28.849Z,0.80
2023-10-20T14:39:57.395Z,1.00
2023-10-20T14:42:24.266Z,1.58
2023-10-20T14:44:51.534Z,0.75
2023-10-20T14:47:18.517Z,1.15
2023-10-20T14:49:45.059Z,2.10
2023-10-20T14:52:13.409Z,0.73
2023-10-20T14:54:40.572Z,1.15
2023-10-20T14:57:07.491Z,1.40
2023-10-20T14:59:34.238Z,1.00
2023-10-20T15:02:00.938Z,1.50
2023-10-20T15:04:30.795Z,1.23
2023-10-20T15:06:58.189Z,1.90
2023-10-20T15:09:24.905Z,1.63
2023-10-20T15:11:52.481Z,1.65
2023-10-20T15:14:19.238Z,3.08
2023-10-20T15:16:45.864Z,2.17
2023-10-20T15:19:12.538Z,2.08
2023-10-20T15:21:39.005Z,2.42
2023-10-20T15:24:07.365Z,1.60
2023-10-20T15:26:33.899Z,3.55
2023-10-20T15:29:00.458Z,2.58
2023-10-20T15:31:27.001Z,2.72
2023-10-20T15:33:53.756Z,4.45
2023-10-20T15:36:22.305Z,2.75
2023-10-20T15:38:50.445Z,2.85
2023-10-20T15:41:19.161Z,2.53
2023-10-20T15:43:46.190Z,2.13
2023-10-20T15:46:13.841Z,1.98
2023-10-20T15:48:40.749Z,2.58
2023-10-20T15:51:09.092Z,1.67
2023-10-20T15:53:36.032Z,1.88
2023-10-20T15:56:02.616Z,2.28
2023-10-20T15:58:29.215Z,1.50
2023-10-20T16:01:00.751Z,1.73
2023-10-20T16:03:57.342Z,2.15
2023-10-20T16:06:23.982Z,1.92
2023-10-20T16:08:54.146Z,2.53
2023-10-20T16:11:20.676Z,1.95
2023-10-20T16:13:47.112Z,5.13
2023-10-20T16:19:07.586Z,2.33
2023-10-20T16:21:34.196Z,2.78
2023-10-20T16:24:00.833Z,2.38
2023-10-20T16:26:27.522Z,2.58
2023-10-20T16:28:54.132Z,1.95
2023-10-20T16:31:20.695Z,1.92
2023-10-20T16:33:47.325Z,1.88
2023-10-20T16:36:13.853Z,1.95
2023-10-20T16:38:40.627Z,2.47
2023-10-20T16:41:07.200Z,1.73
2023-10-20T16:43:33.766Z,2.40
2023-10-20T16:46:05.249Z,2.17
2023-10-20T16:48:32.733Z,2.25
2023-10-20T16:50:59.605Z,3.65
2023-10-20T16:53:26.270Z,2.30
2023-10-20T16:55:53.171Z,2.58
2023-10-20T16:58:20.030Z,2.35
2023-10-20T17:00:46.587Z,2.25
2023-10-20T17:03:13.155Z,2.97
2023-10-20T17:05:39.832Z,2.92
2023-10-20T17:08:06.841Z,2.80
2023-10-20T17:10:38.362Z,4.90
2023-10-20T17:13:04.828Z,2.75
2023-10-20T17:15:32.261Z,4.00
2023-10-20T17:17:59.616Z,3.10
2023-10-20T17:20:26.290Z,3.08
2023-10-20T17:22:52.882Z,3.80
2023-10-20T17:25:19.519Z,4.03
2023-10-20T17:27:46.781Z,3.72
2023-10-20T17:30:13.667Z,3.83
2023-10-20T17:32:40.368Z,4.70
2023-10-20T17:35:07.336Z,3.90
2023-10-20T17:37:33.898Z,4.93
2023-10-20T17:40:01.771Z,5.43
2023-10-20T17:42:28.225Z,4.28
2023-10-20T17:44:54.797Z,4.28
2023-10-20T17:47:21.328Z,5.13
2023-10-20T17:49:47.829Z,5.53
2023-10-20T17:52:14.373Z,4.90
2023-10-20T17:54:41.049Z,5.60
2023-10-20T17:57:08.051Z,5.38
2023-10-20T17:59:34.848Z,4.88
2023-10-20T18:02:01.857Z,5.03
2023-10-20T18:04:28.529Z,5.70
2023-10-20T18:06:55.086Z,4.97
2023-10-20T18:10:00.665Z,5.75
2023-10-20T18:12:27.246Z,6.90
2023-10-20T18:14:53.729Z,6.13
2023-10-20T18:17:20.259Z,6.47
2023-10-20T18:19:46.770Z,7.47
2023-10-20T18:22:13.630Z,8.18
2023-10-20T18:24:40.087Z,6.97
2023-10-20T18:27:06.649Z,7.72
2023-10-20T18:29:35.893Z,8.20
2023-10-20T18:32:03.857Z,7.30
2023-10-20T18:34:30.395Z,7.43
2023-10-20T18:36:58.122Z,7.55
2023-10-20T18:39:25.241Z,8.00
2023-10-20T18:41:53.697Z,9.20
2023-10-20T18:44:20.310Z,7.70
2023-10-20T18:46:46.874Z,10.75
2023-10-20T18:49:13.490Z,8.48
2023-10-20T18:51:42.078Z,11.23
2023-10-20T18:54:10.981Z,10.25
2023-10-20T18:56:38.258Z,10.60
2023-10-20T18:59:06.198Z,9.85
2023-10-20T19:01:32.840Z,11.32
2023-10-20T19:03:59.469Z,10.95
2023-10-20T19:06:26.154Z,11.73
2023-10-20T19:08:52.804Z,11.68
2023-10-20T19:11:21.950Z,11.45
2023-10-20T19:13:48.511Z,11.88
2023-10-20T19:16:15.104Z,8.77
2023-10-20T19:18:41.769Z,8.82
2023-10-20T19:21:11.896Z,8.75
2023-10-20T19:23:39.201Z,11.50
2023-10-20T19:26:15.288Z,12.48
2023-10-20T19:28:42.349Z,10.88
2023-10-20T19:31:09.233Z,10.27
2023-10-20T19:33:37.443Z,11.35
2023-10-20T19:36:07.413Z,10.77
2023-10-20T19:38:34.288Z,11.45
2023-10-20T19:41:00.976Z,12.05
2023-10-20T19:43:27.864Z,13.15
2023-10-20T19:45:54.546Z,12.30
2023-10-20T19:48:21.126Z,12.57
2023-10-20T19:50:47.833Z,13.85
2023-10-20T19:53:14.588Z,14.85
2023-10-20T19:55:42.343Z,12.48
2023-10-20T19:58:08.836Z,11.55
2023-10-20T20:00:35.511Z,13.13
2023-10-20T20:03:02.323Z,14.10
2023-10-20T20:05:29.025Z,12.63
2023-10-20T20:07:56.810Z,13.00
2023-10-20T20:10:23.859Z,12.85
2023-10-20T20:12:50.702Z,11.32
2023-10-20T20:15:17.253Z,12.93
2023-10-20T20:17:44.080Z,13.95
2023-10-20T20:20:10.904Z,15.38
2023-10-20T20:22:37.738Z,13.63
2023-10-20T20:25:04.608Z,11.45
2023-10-20T20:27:32.480Z,13.45
2023-10-20T20:29:59.193Z,14.02
2023-10-20T20:32:25.841Z,13.43
2023-10-20T20:34:52.385Z,11.40
2023-10-20T20:37:20.280Z,11.02
2023-10-20T20:39:47.012Z,12.80
2023-10-20T20:42:13.612Z,11.88
2023-10-20T20:44:40.228Z,13.27
2023-10-20T20:47:06.986Z,13.27
2023-10-20T20:49:35.170Z,11.95
2023-10-20T20:52:02.048Z,12.30
2023-10-20T20:54:28.651Z,12.07
2023-10-20T20:56:55.225Z,11.10
2023-10-20T20:59:21.899Z,12.48
2023-10-20T21:01:48.466Z,11.55
2023-10-20T21:04:15.143Z,12.85
2023-10-20T21:06:41.802Z,11.80
2023-10-20T21:09:10.265Z,14.38
2023-10-20T21:11:37.564Z,11.75
2023-10-20T21:14:04.280Z,10.55
2023-10-20T21:16:32.095Z,10.68
2023-10-20T21:19:01.516Z,11.30
2023-10-20T21:21:28.209Z,11.35
2023-10-20T21:23:54.850Z,9.52
2023-10-20T21:26:22.732Z,10.07
2023-10-20T21:28:49.488Z,9.63
2023-10-20T21:31:16.098Z,9.70
2023-10-20T21:33:43.004Z,8.93
2023-10-20T21:36:14.747Z,11.02
2023-10-20T21:38:41.385Z,8.95
2023-10-20T21:41:08.051Z,8.02
2023-10-20T21:43:34.544Z,9.32
2023-10-20T21:46:01.234Z,8.68
2023-10-20T21:48:27.898Z,7.72
2023-10-20T21:50:58.719Z,17.38
2023-10-20T21:53:26.184Z,7.68
2023-10-20T21:56:02.067Z,7.03
2023-10-20T21:58:29.411Z,7.25
2023-10-20T22:00:56.517Z,8.93
2023-10-20T22:03:23.738Z,7.05
2023-10-20T22:05:54.175Z,6.88
2023-10-20T22:08:21.568Z,8.02
2023-10-20T22:10:48.503Z,8.27
2023-10-20T22:13:15.164Z,9.57
2023-10-20T22:15:41.891Z,9.45
2023-10-20T22:18:09.228Z,6.80
2023-10-20T22:20:35.952Z,5.90
2023-10-20T22:23:02.580Z,5.97
2023-10-20T22:25:29.343Z,5.38
2023-10-20T22:27:56.710Z,7.38
2023-10-20T22:30:24.025Z,7.35
2023-10-20T22:32:50.635Z,5.43
2023-10-20T22:35:17.213Z,6.47
2023-10-20T22:37:43.664Z,10.02
2023-10-20T22:40:10.807Z,7.80
2023-10-20T22:42:37.498Z,4.13
2023-10-20T22:45:05.469Z,4.55
2023-10-20T22:47:33.351Z,5.65
2023-10-20T22:50:00.204Z,5.55
2023-10-20T22:52:26.900Z,7.18
2023-10-20T22:54:53.466Z,7.10
2023-10-20T22:57:20.205Z,5.43
2023-10-20T22:59:46.702Z,3.70
2023-10-20T23:02:13.205Z,8.52
2023-10-20T23:04:39.736Z,5.80
2023-10-20T23:07:06.369Z,3.72
2023-10-20T23:09:33.163Z,3.85
2023-10-20T23:11:59.897Z,7.30
2023-10-20T23:14:26.623Z,4.30
2023-10-20T23:16:53.943Z,5.22
2023-10-20T23:19:20.449Z,3.83
2023-10-20T23:21:46.861Z,6.93
2023-10-20T23:24:13.384Z,3.95
2023-10-20T23:26:39.993Z,5.55
2023-10-20T23:29:06.486Z,6.40
2023-10-20T23:31:33.905Z,5.28
2023-10-20T23:34:00.341Z,3.80
2023-10-20T23:36:26.749Z,5.18
2023-10-20T23:38:53.208Z,3.95
2023-10-20T23:41:19.598Z,5.57
2023-10-20T23:43:46.072Z,3.97
2023-10-20T23:46:12.562Z,4.88
2023-10-20T23:48:39.070Z,5.40
2023-10-20T23:51:05.712Z,7.10
2023-10-20T23:53:32.181Z,3.90
2023-10-20T23:55:58.579Z,3.38
2023-10-20T23:58:25.055Z,4.50
